createdAt,value
2018-09-05T00:00:06.386Z,0.00
2018-09-05T00:01:06.385Z,0.00
2018-09-05T00:02:06.377Z,0.00
2018-09-05T00:03:06.373Z,0.00
2018-09-05T00:04:06.368Z,0.00
2018-09-05T00:05:06.364Z,0.00
2018-09-05T00:06:06.361Z,0.00
2018-09-05T00:07:06.356Z,0.00
2018-09-05T00:08:06.351Z,0.00
2018-09-05T00:09:06.350Z,0.00
2018-09-05T00:10:06.345Z,0.00
2018-09-05T00:11:06.343Z,0.00
2018-09-05T00:12:06.335Z,0.00
2018-09-05T00:13:06.331Z,0.00
2018-09-05T00:14:06.342Z,0.00
2018-09-05T00:15:06.321Z,0.00
2018-09-05T00:16:06.318Z,0.00
2018-09-05T00:17:06.317Z,0.00
2018-09-05T00:18:06.310Z,0.00
2018-09-05T00:19:06.304Z,0.00
2018-09-05T00:20:06.301Z,0.00
2018-09-05T00:21:06.298Z,0.00
2018-09-05T00:22:06.293Z,0.00
2018-09-05T00:23:06.288Z,0.00
2018-09-05T00:24:06.285Z,0.00
2018-09-05T00:25:06.280Z,0.00
2018-09-05T00:26:06.278Z,0.00
2018-09-05T00:27:06.270Z,0.00
2018-09-05T00:28:06.267Z,0.00
2018-09-05T00:29:06.261Z,0.00
2018-09-05T00:30:06.257Z,0.00
2018-09-05T00:31:06.253Z,0.00
2018-09-05T00:32:06.249Z,0.00
2018-09-05T00:33:06.244Z,0.00
2018-09-05T00:34:06.241Z,0.00
2018-09-05T00:35:06.234Z,0.00
2018-09-05T00:36:06.230Z,0.00
2018-09-05T00:37:06.229Z,0.00
2018-09-05T00:38:06.222Z,0.00
2018-09-05T00:39:06.217Z,0.00
2018-09-05T00:40:06.212Z,0.00
2018-09-05T00:41:06.209Z,0.00
2018-09-05T00:42:06.204Z,0.00
2018-09-05T00:43:06.199Z,0.00
2018-09-05T00:44:06.195Z,0.00
2018-09-05T00:45:06.191Z,0.00
2018-09-05T00:46:06.184Z,0.00
2018-09-05T00:47:06.180Z,0.00
2018-09-05T00:48:06.176Z,0.00
2018-09-05T00:49:06.172Z,0.00
2018-09-05T00:50:06.167Z,0.00
2018-09-05T00:51:06.165Z,0.00
2018-09-05T00:52:06.160Z,0.00
2018-09-05T00:53:06.154Z,0.00
2018-09-05T00:54:06.149Z,0.00
2018-09-05T00:55:06.144Z,0.00
2018-09-05T00:56:06.140Z,0.00
2018-09-05T00:57:06.135Z,0.00
2018-09-05T00:58:06.130Z,0.00
2018-09-05T00:59:06.129Z,0.00
2018-09-05T01:00:06.123Z,0.00
2018-09-05T01:01:06.117Z,0.00
2018-09-05T01:02:06.112Z,0.00
2018-09-05T01:03:06.108Z,0.00
2018-09-05T01:04:06.102Z,0.00
2018-09-05T01:05:06.098Z,0.00
2018-09-05T01:06:06.093Z,0.00
2018-09-05T01:07:06.087Z,0.00
2018-09-05T01:08:06.084Z,0.00
2018-09-05T01:09:06.079Z,0.00
2018-09-05T01:10:06.078Z,0.00
2018-09-05T01:11:06.074Z,0.00
2018-09-05T01:12:06.064Z,0.00
2018-09-05T01:13:06.060Z,0.00
2018-09-05T01:14:06.057Z,0.00
2018-09-05T01:15:06.050Z,0.00
2018-09-05T01:16:06.045Z,0.00
2018-09-05T01:17:06.041Z,0.00
2018-09-05T01:18:06.036Z,0.00
2018-09-05T01:19:06.029Z,0.00
2018-09-05T01:20:06.026Z,0.00
2018-09-05T01:21:06.022Z,0.00
2018-09-05T01:22:06.017Z,0.00
2018-09-05T01:23:06.011Z,0.00
2018-09-05T01:24:06.007Z,0.00
2018-09-05T01:25:06.003Z,0.00
2018-09-05T01:26:05.997Z,0.00
2018-09-05T01:27:05.992Z,0.00
2018-09-05T01:28:05.987Z,0.00
2018-09-05T01:29:05.983Z,0.00
2018-09-05T01:30:05.978Z,0.00
2018-09-05T01:31:05.977Z,0.00
2018-09-05T01:32:05.972Z,0.00
2018-09-05T01:33:05.963Z,0.00
2018-09-05T01:34:05.963Z,0.00
2018-09-05T01:35:05.954Z,0.00
2018-09-05T01:36:05.948Z,0.00
2018-09-05T01:37:05.944Z,0.00
2018-09-05T01:38:05.939Z,0.00
2018-09-05T01:39:05.932Z,0.00
2018-09-05T01:40:05.929Z,0.00
2018-09-05T01:41:05.926Z,0.00
2018-09-05T01:42:05.919Z,0.00
2018-09-05T01:43:05.913Z,0.00
2018-09-05T01:44:05.908Z,0.00
2018-09-05T01:45:05.904Z,0.00
2018-09-05T01:46:05.899Z,0.00
2018-09-05T01:47:05.893Z,0.00
2018-09-05T01:48:05.889Z,0.00
2018-09-05T01:49:05.884Z,0.00
2018-09-05T01:50:05.879Z,0.00
2018-09-05T01:51:05.874Z,0.00
2018-09-05T01:52:05.868Z,0.00
2018-09-05T01:53:05.868Z,0.00
2018-09-05T01:54:05.860Z,0.00
2018-09-05T01:55:05.853Z,0.00
2018-09-05T01:56:05.849Z,0.00
2018-09-05T01:57:05.851Z,0.00
2018-09-05T01:58:05.840Z,0.00
2018-09-05T01:59:05.834Z,0.00
2018-09-05T02:00:05.830Z,0.00
2018-09-05T02:01:05.825Z,0.00
2018-09-05T02:02:05.820Z,0.00
2018-09-05T02:03:05.814Z,0.00
2018-09-05T02:04:05.810Z,0.00
2018-09-05T02:05:05.805Z,0.00
2018-09-05T02:06:05.800Z,0.00
2018-09-05T02:07:05.795Z,0.00
2018-09-05T02:08:05.791Z,0.00
2018-09-05T02:09:05.786Z,0.00
2018-09-05T02:10:05.780Z,0.00
2018-09-05T02:11:05.774Z,0.00
2018-09-05T02:12:05.771Z,0.00
2018-09-05T02:13:05.766Z,0.00
2018-09-05T02:14:05.762Z,0.00
2018-09-05T02:15:05.756Z,0.00
2018-09-05T02:16:05.752Z,0.00
2018-09-05T02:17:05.747Z,0.00
2018-09-05T02:18:05.742Z,0.00
2018-09-05T02:19:05.740Z,0.00
2018-09-05T02:20:05.731Z,0.00
2018-09-05T02:21:05.728Z,0.00
2018-09-05T02:22:05.722Z,0.00
2018-09-05T02:23:05.717Z,0.00
2018-09-05T02:24:05.712Z,0.00
2018-09-05T02:25:05.708Z,0.00
2018-09-05T02:26:05.705Z,0.00
2018-09-05T02:27:05.699Z,0.00
2018-09-05T02:28:05.696Z,0.00
2018-09-05T02:29:05.690Z,0.00
2018-09-05T02:30:05.685Z,0.00
2018-09-05T02:31:05.679Z,0.00
2018-09-05T02:32:05.674Z,0.00
2018-09-05T02:33:05.670Z,0.00
2018-09-05T02:34:05.669Z,0.00
2018-09-05T02:35:05.660Z,0.00
2018-09-05T02:36:05.656Z,0.00
2018-09-05T02:37:05.651Z,0.00
2018-09-05T02:38:05.649Z,0.00
2018-09-05T02:39:05.641Z,0.00
2018-09-05T02:40:05.637Z,0.00
2018-09-05T02:41:05.632Z,0.00
2018-09-05T02:42:05.628Z,0.00
2018-09-05T02:43:05.621Z,0.00
2018-09-05T02:44:05.617Z,0.00
2018-09-05T02:45:05.614Z,0.00
2018-09-05T02:46:05.608Z,0.00
2018-09-05T02:47:05.601Z,0.00
2018-09-05T02:48:05.597Z,0.00
2018-09-05T02:49:05.594Z,0.00
2018-09-05T02:50:05.589Z,0.00
2018-09-05T02:51:05.585Z,0.00
2018-09-05T02:52:05.579Z,0.00
2018-09-05T02:53:05.574Z,0.00
2018-09-05T02:54:05.570Z,0.00
2018-09-05T02:55:05.565Z,0.00
2018-09-05T02:56:05.560Z,0.00
2018-09-05T02:57:05.555Z,0.00
2018-09-05T02:58:05.556Z,0.00
2018-09-05T02:59:05.546Z,0.00
2018-09-05T03:00:05.543Z,0.00
2018-09-05T03:01:05.540Z,0.00
2018-09-05T03:02:05.532Z,0.00
2018-09-05T03:03:05.527Z,0.00
2018-09-05T03:04:05.521Z,0.00
2018-09-05T03:05:05.517Z,0.00
2018-09-05T03:06:05.518Z,0.00
2018-09-05T03:07:05.507Z,0.00
2018-09-05T03:08:05.503Z,0.00
2018-09-05T03:09:05.497Z,0.00
2018-09-05T03:10:05.494Z,0.00
2018-09-05T03:11:05.489Z,0.00
2018-09-05T03:12:05.484Z,0.00
2018-09-05T03:13:05.483Z,0.00
2018-09-05T03:14:05.476Z,0.00
2018-09-05T03:15:05.471Z,0.00
2018-09-05T03:16:05.467Z,0.00
2018-09-05T03:17:05.462Z,0.00
2018-09-05T03:18:05.456Z,0.00
2018-09-05T03:19:05.455Z,0.00
2018-09-05T03:20:05.446Z,0.00
2018-09-05T03:21:05.443Z,0.00
2018-09-05T03:22:05.441Z,0.00
2018-09-05T03:23:05.436Z,0.00
2018-09-05T03:24:05.429Z,0.00
2018-09-05T03:25:05.424Z,0.00
2018-09-05T03:26:05.430Z,0.00
2018-09-05T03:27:05.414Z,0.00
2018-09-05T03:28:05.410Z,0.00
2018-09-05T03:29:05.406Z,0.00
2018-09-05T03:30:05.401Z,0.00
2018-09-05T03:31:05.396Z,0.00
2018-09-05T03:32:05.391Z,0.00
2018-09-05T03:33:05.454Z,0.00
2018-09-05T03:34:05.382Z,0.00
2018-09-05T03:35:05.377Z,0.00
2018-09-05T03:36:05.372Z,0.00
2018-09-05T03:37:05.369Z,0.00
2018-09-05T03:38:05.363Z,0.00
2018-09-05T03:39:05.358Z,0.00
2018-09-05T03:40:05.355Z,0.00
2018-09-05T03:41:05.650Z,0.00
2018-09-05T03:42:05.345Z,0.00
2018-09-05T03:43:05.340Z,0.00
2018-09-05T03:44:05.335Z,0.00
2018-09-05T03:45:05.330Z,0.00
2018-09-05T03:46:05.327Z,0.00
2018-09-05T03:47:05.324Z,0.00
2018-09-05T03:48:05.317Z,0.00
2018-09-05T03:49:05.313Z,0.00
2018-09-05T03:50:05.314Z,0.00
2018-09-05T03:51:05.303Z,0.00
2018-09-05T03:52:05.299Z,0.00
2018-09-05T03:53:05.295Z,0.00
2018-09-05T03:54:05.292Z,0.00
2018-09-05T03:55:05.286Z,0.00
2018-09-05T03:56:05.279Z,0.00
2018-09-05T03:57:05.277Z,0.00
2018-09-05T03:58:05.272Z,0.00
2018-09-05T03:59:05.267Z,0.00
2018-09-05T04:00:05.267Z,0.00
2018-09-05T04:01:05.259Z,0.00
2018-09-05T04:02:05.255Z,0.00
2018-09-05T04:03:05.251Z,0.00
2018-09-05T04:04:05.245Z,0.00
2018-09-05T04:05:05.302Z,0.00
2018-09-05T04:06:05.236Z,0.00
2018-09-05T04:07:05.232Z,0.00
2018-09-05T04:08:05.231Z,0.00
2018-09-05T04:09:05.229Z,0.00
2018-09-05T04:10:05.219Z,0.00
2018-09-05T04:11:05.214Z,0.00
2018-09-05T04:12:05.212Z,0.00
2018-09-05T04:13:05.205Z,0.00
2018-09-05T04:14:05.201Z,0.00
2018-09-05T04:15:05.197Z,0.00
2018-09-05T04:16:05.191Z,0.00
2018-09-05T04:17:05.190Z,0.00
2018-09-05T04:18:05.185Z,0.00
2018-09-05T04:19:05.179Z,0.00
2018-09-05T04:20:05.175Z,0.00
2018-09-05T04:21:05.172Z,0.00
2018-09-05T04:22:05.226Z,0.00
2018-09-05T04:23:05.165Z,0.00
2018-09-05T04:24:05.158Z,0.00
2018-09-05T04:25:05.153Z,0.00
2018-09-05T04:26:05.150Z,0.00
2018-09-05T04:27:05.144Z,0.00
2018-09-05T04:28:05.143Z,4.00
2018-09-05T04:29:05.137Z,4.00
2018-09-05T04:30:05.133Z,0.00
2018-09-05T04:31:05.129Z,0.00
2018-09-05T04:32:05.124Z,4.00
2018-09-05T04:33:05.121Z,0.00
2018-09-05T04:34:05.116Z,4.00
2018-09-05T04:35:05.111Z,4.00
2018-09-05T04:36:05.107Z,8.00
2018-09-05T04:37:05.102Z,8.00
2018-09-05T04:38:05.097Z,8.00
2018-09-05T04:39:05.094Z,12.00
2018-09-05T04:40:05.090Z,12.00
2018-09-05T04:41:05.085Z,16.00
2018-09-05T04:42:05.082Z,16.00
2018-09-05T04:43:05.076Z,16.00
2018-09-05T04:44:05.072Z,20.00
2018-09-05T04:45:05.119Z,24.00
2018-09-05T04:46:05.064Z,28.00
2018-09-05T04:47:05.059Z,32.00
2018-09-05T04:48:05.054Z,36.00
2018-09-05T04:49:05.094Z,40.00
2018-09-05T04:50:05.050Z,44.00
2018-09-05T04:51:05.042Z,48.00
2018-09-05T04:52:05.037Z,56.00
2018-09-05T04:53:05.034Z,60.00
2018-09-05T04:54:05.029Z,68.00
2018-09-05T04:55:05.024Z,76.00
2018-09-05T04:56:05.029Z,80.00
2018-09-05T04:57:05.016Z,84.00
2018-09-05T04:58:05.011Z,92.00
2018-09-05T04:59:05.008Z,100.00
2018-09-05T05:00:05.005Z,108.00
2018-09-05T05:01:05.000Z,124.00
2018-09-05T05:02:04.996Z,132.00
2018-09-05T05:03:05.041Z,144.00
2018-09-05T05:04:04.985Z,156.00
2018-09-05T05:05:04.983Z,164.00
2018-09-05T05:06:05.046Z,172.00
2018-09-05T05:07:04.974Z,180.00
2018-09-05T05:08:04.970Z,192.00
2018-09-05T05:09:04.966Z,204.00
2018-09-05T05:10:04.962Z,220.00
2018-09-05T05:11:04.956Z,232.00
2018-09-05T05:12:04.953Z,252.00
2018-09-05T05:13:04.949Z,272.00
2018-09-05T05:14:04.945Z,284.00
2018-09-05T05:15:04.944Z,304.00
2018-09-05T05:16:04.937Z,328.00
2018-09-05T05:17:04.933Z,360.00
2018-09-05T05:18:04.929Z,380.00
2018-09-05T05:19:04.924Z,416.00
2018-09-05T05:20:04.920Z,456.00
2018-09-05T05:21:04.966Z,492.00
2018-09-05T05:22:04.913Z,520.00
2018-09-05T05:23:04.907Z,552.00
2018-09-05T05:24:04.903Z,580.00
2018-09-05T05:25:04.900Z,608.00
2018-09-05T05:26:04.946Z,632.00
2018-09-05T05:27:04.892Z,652.00
2018-09-05T05:28:04.887Z,672.00
2018-09-05T05:29:04.883Z,708.00
2018-09-05T05:30:04.879Z,748.00
2018-09-05T05:31:04.976Z,792.00
2018-09-05T05:32:04.871Z,832.00
2018-09-05T05:33:04.869Z,860.00
2018-09-05T05:34:04.863Z,892.00
2018-09-05T05:35:04.858Z,916.00
2018-09-05T05:36:04.903Z,940.00
2018-09-05T05:37:04.850Z,956.00
2018-09-05T05:38:04.854Z,980.00
2018-09-05T05:39:04.877Z,1012.00
2018-09-05T05:40:04.885Z,1052.00
2018-09-05T05:41:04.884Z,1104.00
2018-09-05T05:42:04.829Z,1168.00
2018-09-05T05:43:04.825Z,1228.00
2018-09-05T05:44:04.825Z,1272.00
2018-09-05T05:45:04.817Z,1316.00
2018-09-05T05:46:04.913Z,1360.00
2018-09-05T05:47:04.812Z,1404.00
2018-09-05T05:48:04.805Z,1468.00
2018-09-05T05:49:04.800Z,1548.00
2018-09-05T05:50:04.796Z,1628.00
2018-09-05T05:51:04.794Z,1712.00
2018-09-05T05:52:04.789Z,1792.00
2018-09-05T05:53:04.784Z,1864.00
2018-09-05T05:54:04.780Z,1896.00
2018-09-05T05:55:04.883Z,1916.00
2018-09-05T05:56:04.771Z,1948.00
2018-09-05T05:57:04.768Z,1992.00
2018-09-05T05:58:04.763Z,2032.00
2018-09-05T05:59:04.760Z,2068.00
2018-09-05T06:00:04.756Z,2100.00
2018-09-05T06:01:04.840Z,2132.00
2018-09-05T06:02:04.749Z,2168.00
2018-09-05T06:03:04.744Z,2192.00
2018-09-05T06:04:04.741Z,2160.00
2018-09-05T06:05:04.737Z,2092.00
2018-09-05T06:06:04.771Z,2048.00
2018-09-05T06:07:04.729Z,2012.00
2018-09-05T06:08:04.725Z,1988.00
2018-09-05T06:09:04.722Z,2008.00
2018-09-05T06:10:04.720Z,2040.00
2018-09-05T06:11:04.714Z,2072.00
2018-09-05T06:12:04.776Z,2132.00
2018-09-05T06:13:04.707Z,2224.00
2018-09-05T06:14:04.706Z,2324.00
2018-09-05T06:15:04.700Z,2408.00
2018-09-05T06:16:04.695Z,2520.00
2018-09-05T06:17:04.692Z,2640.00
2018-09-05T06:18:04.771Z,2688.00
2018-09-05T06:19:04.684Z,2764.00
2018-09-05T06:20:04.681Z,2904.00
2018-09-05T06:21:04.709Z,3068.00
2018-09-05T06:22:04.674Z,3248.00
2018-09-05T06:23:04.669Z,3432.00
2018-09-05T06:24:04.691Z,3552.00
2018-09-05T06:25:04.663Z,3616.00
2018-09-05T06:26:04.659Z,3676.00
2018-09-05T06:27:04.655Z,3748.00
2018-09-05T06:28:04.652Z,3784.00
2018-09-05T06:29:04.648Z,3832.00
2018-09-05T06:30:04.644Z,3904.00
2018-09-05T06:31:04.821Z,3992.00
2018-09-05T06:32:04.636Z,4068.00
2018-09-05T06:33:04.634Z,4100.00
2018-09-05T06:34:04.665Z,4140.00
2018-09-05T06:35:04.626Z,4176.00
2018-09-05T06:36:04.623Z,4232.00
2018-09-05T06:37:04.622Z,4264.00
2018-09-05T06:38:04.617Z,4292.00
2018-09-05T06:39:04.618Z,4408.00
2018-09-05T06:40:04.611Z,4592.00
2018-09-05T06:41:04.606Z,4776.00
2018-09-05T06:42:04.602Z,4916.00
2018-09-05T06:43:04.599Z,5004.00
2018-09-05T06:44:04.594Z,5068.00
2018-09-05T06:45:04.915Z,5128.00
2018-09-05T06:46:04.590Z,5116.00
2018-09-05T06:47:04.586Z,5108.00
2018-09-05T06:48:04.584Z,5144.00
2018-09-05T06:49:04.579Z,5212.00
2018-09-05T06:50:04.576Z,5304.00
2018-09-05T06:51:04.573Z,5400.00
2018-09-05T06:52:04.570Z,5428.00
2018-09-05T06:53:04.567Z,5436.00
2018-09-05T06:54:04.564Z,5424.00
2018-09-05T06:55:04.560Z,5380.00
2018-09-05T06:56:04.557Z,5268.00
2018-09-05T06:57:04.555Z,5160.00
2018-09-05T06:58:04.554Z,5092.00
2018-09-05T06:59:04.548Z,5068.00
2018-09-05T07:00:04.545Z,4984.00
2018-09-05T07:01:04.543Z,4928.00
2018-09-05T07:02:04.541Z,4880.00
2018-09-05T07:03:04.537Z,4884.00
2018-09-05T07:04:04.533Z,4924.00
2018-09-05T07:05:04.531Z,5004.00
2018-09-05T07:06:04.528Z,5048.00
2018-09-05T07:07:04.618Z,5080.00
2018-09-05T07:08:04.522Z,5188.00
2018-09-05T07:09:04.519Z,5312.00
2018-09-05T07:10:04.602Z,5496.00
2018-09-05T07:11:04.513Z,5732.00
2018-09-05T07:12:04.510Z,5952.00
2018-09-05T07:13:04.507Z,6152.00
2018-09-05T07:14:04.510Z,6336.00
2018-09-05T07:15:04.504Z,6488.00
2018-09-05T07:16:04.501Z,6620.00
2018-09-05T07:17:04.496Z,6720.00
2018-09-05T07:18:04.493Z,6808.00
2018-09-05T07:19:04.489Z,6916.00
2018-09-05T07:20:04.487Z,7040.00
2018-09-05T07:21:06.173Z,7160.00
2018-09-05T07:22:04.616Z,7236.00
2018-09-05T07:23:04.488Z,7304.00
2018-09-05T07:24:04.479Z,7400.00
2018-09-05T07:25:04.494Z,7432.00
2018-09-05T07:26:04.472Z,7396.00
2018-09-05T07:27:04.469Z,7388.00
2018-09-05T07:28:04.466Z,7372.00
2018-09-05T07:29:04.465Z,7364.00
2018-09-05T07:30:04.462Z,7364.00
2018-09-05T07:31:04.459Z,7392.00
2018-09-05T07:32:04.461Z,7384.00
2018-09-05T07:33:04.458Z,7412.00
2018-09-05T07:34:04.453Z,7460.00
2018-09-05T07:35:04.449Z,7476.00
2018-09-05T07:36:04.449Z,7436.00
2018-09-05T07:37:04.447Z,7408.00
2018-09-05T07:38:04.448Z,7404.00
2018-09-05T07:39:04.442Z,7452.00
2018-09-05T07:40:04.441Z,7520.00
2018-09-05T07:41:04.438Z,7576.00
2018-09-05T07:42:04.437Z,7668.00
2018-09-05T07:43:04.435Z,7748.00
2018-09-05T07:44:04.434Z,7792.00
2018-09-05T07:45:04.432Z,7848.00
2018-09-05T07:46:04.430Z,7912.00
2018-09-05T07:47:04.427Z,7988.00
2018-09-05T07:48:04.428Z,8036.00
2018-09-05T07:49:04.425Z,8076.00
2018-09-05T07:50:04.776Z,8120.00
2018-09-05T07:51:04.461Z,8208.00
2018-09-05T07:52:04.439Z,8320.00
2018-09-05T07:53:04.419Z,8352.00
2018-09-05T07:54:04.419Z,8392.00
2018-09-05T07:55:04.430Z,8404.00
2018-09-05T07:56:04.414Z,8348.00
2018-09-05T07:57:04.411Z,8308.00
2018-09-05T07:58:04.412Z,8328.00
2018-09-05T07:59:04.410Z,8420.00
2018-09-05T08:00:04.409Z,8544.00
2018-09-05T08:01:04.408Z,8660.00
2018-09-05T08:02:04.407Z,8744.00
2018-09-05T08:03:04.425Z,8840.00
2018-09-05T08:04:04.403Z,8924.00
2018-09-05T08:05:04.402Z,8984.00
2018-09-05T08:06:04.402Z,9012.00
2018-09-05T08:07:04.401Z,9008.00
2018-09-05T08:08:04.399Z,9008.00
2018-09-05T08:09:04.399Z,9064.00
2018-09-05T08:10:04.397Z,9144.00
2018-09-05T08:11:04.396Z,9240.00
2018-09-05T08:12:04.399Z,9420.00
2018-09-05T08:13:04.394Z,9696.00
2018-09-05T08:14:04.395Z,10028.00
2018-09-05T08:15:04.393Z,10456.00
2018-09-05T08:16:04.394Z,11104.00
2018-09-05T08:17:04.393Z,11848.00
2018-09-05T08:18:04.433Z,12616.00
2018-09-05T08:19:04.391Z,13336.00
2018-09-05T08:20:04.390Z,14104.00
2018-09-05T08:21:04.391Z,14832.00
2018-09-05T08:22:04.392Z,15636.00
2018-09-05T08:23:04.391Z,16960.00
2018-09-05T08:24:04.440Z,17952.00
2018-09-05T08:25:04.394Z,17280.00
2018-09-05T08:26:04.397Z,17312.00
2018-09-05T08:27:04.396Z,17504.00
2018-09-05T08:28:04.394Z,17728.00
2018-09-05T08:29:04.400Z,17664.00
2018-09-05T08:30:05.262Z,17056.00
2018-09-05T08:31:04.400Z,16576.00
2018-09-05T08:32:04.404Z,16120.00
2018-09-05T08:33:04.402Z,15904.00
2018-09-05T08:34:04.405Z,15904.00
2018-09-05T08:35:04.648Z,16116.00
2018-09-05T08:36:04.875Z,16768.00
2018-09-05T08:37:04.528Z,17344.00
2018-09-05T08:38:04.556Z,18304.00
2018-09-05T08:39:04.560Z,19872.00
2018-09-05T08:40:04.431Z,19520.00
2018-09-05T08:41:04.417Z,19776.00
2018-09-05T08:42:04.420Z,20032.00
2018-09-05T08:43:04.421Z,19840.00
2018-09-05T08:44:04.471Z,20320.00
2018-09-05T08:45:04.591Z,20224.00
2018-09-05T08:46:04.674Z,20352.00
2018-09-05T08:47:04.431Z,20512.00
2018-09-05T08:48:04.449Z,20672.00
2018-09-05T08:49:04.439Z,20704.00
2018-09-05T08:50:04.450Z,20288.00
2018-09-05T08:51:04.442Z,20800.00
2018-09-05T08:52:04.473Z,21184.00
2018-09-05T08:53:04.450Z,22464.00
2018-09-05T08:54:04.454Z,22656.00
2018-09-05T08:55:04.560Z,21664.00
2018-09-05T08:56:04.546Z,21440.00
2018-09-05T08:57:04.483Z,21600.00
2018-09-05T08:58:04.469Z,22432.00
2018-09-05T08:59:04.473Z,21440.00
2018-09-05T09:00:04.475Z,20352.00
2018-09-05T09:01:04.479Z,20000.00
2018-09-05T09:02:04.485Z,19904.00
2018-09-05T09:03:04.554Z,21280.00
2018-09-05T09:04:04.493Z,20512.00
2018-09-05T09:05:04.568Z,20832.00
2018-09-05T09:06:04.529Z,22976.00
2018-09-05T09:07:04.507Z,21344.00
2018-09-05T09:08:04.509Z,20960.00
2018-09-05T09:09:04.515Z,20640.00
2018-09-05T09:10:04.522Z,22208.00
2018-09-05T09:11:04.524Z,20384.00
2018-09-05T09:12:04.529Z,20800.00
2018-09-05T09:13:04.534Z,20224.00
2018-09-05T09:14:04.539Z,20832.00
2018-09-05T09:15:04.546Z,21024.00
2018-09-05T09:16:04.546Z,19776.00
2018-09-05T09:17:04.553Z,19424.00
2018-09-05T09:18:04.557Z,19168.00
2018-09-05T09:19:04.561Z,19008.00
2018-09-05T09:20:04.567Z,19040.00
2018-09-05T09:21:04.570Z,19168.00
2018-09-05T09:22:04.576Z,19424.00
2018-09-05T09:23:04.580Z,19744.00
2018-09-05T09:24:04.584Z,20096.00
2018-09-05T09:25:04.587Z,21600.00
2018-09-05T09:26:04.592Z,21728.00
2018-09-05T09:27:04.595Z,21664.00
2018-09-05T09:28:04.676Z,22240.00
2018-09-05T09:29:04.605Z,22144.00
2018-09-05T09:30:04.610Z,22528.00
2018-09-05T09:31:04.613Z,22496.00
2018-09-05T09:32:04.616Z,22400.00
2018-09-05T09:33:04.621Z,22496.00
2018-09-05T09:34:04.625Z,23104.00
2018-09-05T09:35:04.628Z,25376.00
2018-09-05T09:36:04.633Z,23424.00
2018-09-05T09:37:04.638Z,23232.00
2018-09-05T09:38:04.645Z,22720.00
2018-09-05T09:39:04.646Z,22304.00
2018-09-05T09:40:04.651Z,22336.00
2018-09-05T09:41:04.656Z,24320.00
2018-09-05T09:42:04.661Z,27136.00
2018-09-05T09:43:04.668Z,31008.00
2018-09-05T09:44:04.673Z,30784.00
2018-09-05T09:45:04.677Z,29312.00
2018-09-05T09:46:04.683Z,27040.00
2018-09-05T09:47:04.691Z,24608.00
2018-09-05T09:48:04.695Z,24096.00
2018-09-05T09:49:04.702Z,26016.00
2018-09-05T09:50:04.709Z,27392.00
2018-09-05T09:51:04.714Z,24096.00
2018-09-05T09:52:04.721Z,23552.00
2018-09-05T09:53:04.728Z,23296.00
2018-09-05T09:54:04.738Z,23104.00
2018-09-05T09:55:04.781Z,28960.00
2018-09-05T09:56:04.747Z,24512.00
2018-09-05T09:57:04.754Z,25248.00
2018-09-05T09:58:04.761Z,24224.00
2018-09-05T09:59:04.769Z,23104.00
2018-09-05T10:00:04.774Z,22176.00
2018-09-05T10:01:04.782Z,22464.00
2018-09-05T10:02:04.789Z,22688.00
2018-09-05T10:03:04.794Z,22368.00
2018-09-05T10:04:04.944Z,21536.00
2018-09-05T10:05:04.808Z,21088.00
2018-09-05T10:06:04.813Z,22304.00
2018-09-05T10:07:04.842Z,23424.00
2018-09-05T10:08:04.830Z,30272.00
2018-09-05T10:09:04.833Z,25280.00
2018-09-05T10:10:05.055Z,24448.00
2018-09-05T10:11:04.844Z,28800.00
2018-09-05T10:12:04.852Z,28512.00
2018-09-05T10:13:04.863Z,37760.00
2018-09-05T10:14:04.864Z,35808.00
2018-09-05T10:15:04.872Z,39424.00
2018-09-05T10:16:04.881Z,31840.00
2018-09-05T10:17:04.942Z,29504.00
2018-09-05T10:18:04.897Z,30016.00
2018-09-05T10:19:04.904Z,30880.00
2018-09-05T10:20:04.913Z,33856.00
2018-09-05T10:21:05.032Z,39744.00
2018-09-05T10:22:04.931Z,37856.00
2018-09-05T10:23:04.940Z,35424.00
2018-09-05T10:24:04.950Z,33888.00
2018-09-05T10:25:04.960Z,34208.00
2018-09-05T10:26:04.970Z,38272.00
2018-09-05T10:27:04.980Z,32704.00
2018-09-05T10:28:04.989Z,38784.00
2018-09-05T10:29:05.002Z,41984.00
2018-09-05T10:30:05.010Z,44416.00
2018-09-05T10:31:05.019Z,44576.00
2018-09-05T10:32:05.030Z,44000.00
2018-09-05T10:33:05.042Z,46912.00
2018-09-05T10:34:05.053Z,46784.00
2018-09-05T10:35:05.061Z,37152.00
2018-09-05T10:36:05.072Z,45728.00
2018-09-05T10:37:05.084Z,49920.00
2018-09-05T10:38:05.096Z,48544.00
2018-09-05T10:39:05.107Z,55616.00
2018-09-05T10:40:05.119Z,61920.00
2018-09-05T10:41:05.131Z,58336.00
2018-09-05T10:42:05.143Z,55968.00
2018-09-05T10:43:05.155Z,57344.00
2018-09-05T10:44:05.167Z,41152.00
2018-09-05T10:45:05.180Z,44768.00
2018-09-05T10:46:05.194Z,51360.00
2018-09-05T10:47:05.205Z,60320.00
2018-09-05T10:48:05.217Z,45376.00
2018-09-05T10:49:05.229Z,37440.00
2018-09-05T10:50:05.241Z,38240.00
2018-09-05T10:51:05.253Z,50496.00
2018-09-05T10:52:05.265Z,61248.00
2018-09-05T10:53:05.278Z,50592.00
2018-09-05T10:54:05.290Z,53152.00
2018-09-05T10:55:05.302Z,47264.00
2018-09-05T10:56:05.315Z,51648.00
2018-09-05T10:57:05.327Z,52672.00
2018-09-05T10:58:05.374Z,54080.00
2018-09-05T10:59:05.352Z,52480.00
2018-09-05T11:00:05.365Z,50080.00
2018-09-05T11:01:05.377Z,50880.00
2018-09-05T11:02:05.392Z,49120.00
2018-09-05T11:03:05.403Z,48032.00
2018-09-05T11:04:05.424Z,45440.00
2018-09-05T11:05:05.429Z,47488.00
2018-09-05T11:06:05.443Z,47360.00
2018-09-05T11:07:05.456Z,46400.00
2018-09-05T11:08:05.469Z,45440.00
2018-09-05T11:09:05.483Z,44096.00
2018-09-05T11:10:05.494Z,43392.00
2018-09-05T11:11:05.509Z,42528.00
2018-09-05T11:12:05.522Z,44864.00
2018-09-05T11:13:05.535Z,44832.00
2018-09-05T11:14:05.552Z,44608.00
2018-09-05T11:15:05.561Z,46208.00
2018-09-05T11:16:05.576Z,44256.00
2018-09-05T11:17:05.589Z,41792.00
2018-09-05T11:18:05.603Z,37984.00
2018-09-05T11:19:05.616Z,40864.00
2018-09-05T11:20:05.634Z,40704.00
2018-09-05T11:21:05.657Z,45152.00
2018-09-05T11:22:05.658Z,48096.00
2018-09-05T11:23:05.670Z,48608.00
2018-09-05T11:24:05.684Z,48640.00
2018-09-05T11:25:05.698Z,49952.00
2018-09-05T11:26:05.715Z,48448.00
2018-09-05T11:27:05.727Z,44832.00
2018-09-05T11:28:05.740Z,42176.00
2018-09-05T11:29:05.764Z,29504.00
2018-09-05T11:30:05.767Z,19776.00
2018-09-05T11:31:05.781Z,15824.00
2018-09-05T11:32:05.794Z,16224.00
2018-09-05T11:33:05.806Z,31072.00
2018-09-05T11:34:05.819Z,20480.00
2018-09-05T11:35:05.834Z,15716.00
2018-09-05T11:36:05.842Z,21248.00
2018-09-05T11:37:05.943Z,18528.00
2018-09-05T11:38:05.864Z,40960.00
2018-09-05T11:39:05.877Z,32832.00
2018-09-05T11:40:05.887Z,28544.00
2018-09-05T11:41:05.895Z,36384.00
2018-09-05T11:42:05.907Z,34656.00
2018-09-05T11:43:05.918Z,44832.00
2018-09-05T11:44:05.929Z,41472.00
2018-09-05T11:45:05.938Z,40288.00
2018-09-05T11:46:05.949Z,40992.00
2018-09-05T11:47:05.959Z,43680.00
2018-09-05T11:48:05.970Z,41856.00
2018-09-05T11:49:05.981Z,36832.00
2018-09-05T11:50:05.993Z,38656.00
2018-09-05T11:51:06.005Z,38496.00
2018-09-05T11:52:06.015Z,33696.00
2018-09-05T11:53:06.026Z,35968.00
2018-09-05T11:54:06.037Z,36672.00
2018-09-05T11:55:06.049Z,38048.00
2018-09-05T11:56:06.060Z,38848.00
2018-09-05T11:57:06.072Z,43872.00
2018-09-05T11:58:06.087Z,39680.00
2018-09-05T11:59:06.095Z,28704.00
2018-09-05T12:00:06.106Z,21472.00
2018-09-05T12:01:06.116Z,19040.00
2018-09-05T12:02:06.139Z,16632.00
2018-09-05T12:03:06.140Z,18208.00
2018-09-05T12:04:06.151Z,19680.00
2018-09-05T12:05:06.211Z,19808.00
2018-09-05T12:06:06.182Z,19968.00
2018-09-05T12:07:06.183Z,19424.00
2018-09-05T12:08:06.195Z,18976.00
2018-09-05T12:09:06.208Z,18944.00
2018-09-05T12:10:06.217Z,18560.00
2018-09-05T12:11:06.229Z,18496.00
2018-09-05T12:12:06.246Z,18496.00
2018-09-05T12:13:06.252Z,18880.00
2018-09-05T12:14:06.263Z,19616.00
2018-09-05T12:15:06.274Z,22112.00
2018-09-05T12:16:06.288Z,21728.00
2018-09-05T12:17:06.300Z,14028.00
2018-09-05T12:18:06.308Z,12936.00
2018-09-05T12:19:06.319Z,12060.00
2018-09-05T12:20:06.331Z,11520.00
2018-09-05T12:21:06.339Z,11364.00
2018-09-05T12:22:06.349Z,11348.00
2018-09-05T12:23:06.357Z,11424.00
2018-09-05T12:24:06.366Z,11900.00
2018-09-05T12:25:06.375Z,12384.00